sensor_id;sensor_type;location;lat;lon;timestamp;pressure;altitude;pressure_sealevel;temperature;humidity
56142;BME280;42018;48.588;10.836;2023-07-09T00:02:42;97149.53;;;21.49;57.33
56142;BME280;42018;48.588;10.836;2023-07-09T00:05:27;97156.88;;;21.31;57.83
56142;BME280;42018;48.588;10.836;2023-07-09T00:08:25;97159.00;;;21.17;57.83
56142;BME280;42018;48.588;10.836;2023-07-09T00:11:12;97163.03;;;20.93;59.02
56142;BME280;42018;48.588;10.836;2023-07-09T00:13:57;97155.91;;;20.97;59.21
56142;BME280;42018;48.588;10.836;2023-07-09T00:16:44;97164.09;;;21.10;59.00
56142;BME280;42018;48.588;10.836;2023-07-09T00:19:33;97172.00;;;20.68;60.33
56142;BME280;42018;48.588;10.836;2023-07-09T00:22:19;97167.34;;;20.86;60.09
56142;BME280;42018;48.588;10.836;2023-07-09T00:25:05;97168.09;;;21.03;59.08
56142;BME280;42018;48.588;10.836;2023-07-09T00:27:50;97167.72;;;21.14;59.02
56142;BME280;42018;48.588;10.836;2023-07-09T00:30:36;97165.97;;;21.18;58.76
56142;BME280;42018;48.588;10.836;2023-07-09T00:33:21;97171.31;;;21.26;58.16
56142;BME280;42018;48.588;10.836;2023-07-09T00:36:27;97177.19;;;21.28;57.75
56142;BME280;42018;48.588;10.836;2023-07-09T00:39:18;97176.84;;;21.39;57.49
56142;BME280;42018;48.588;10.836;2023-07-09T00:42:04;97174.81;;;21.36;57.67
56142;BME280;42018;48.588;10.836;2023-07-09T00:44:51;97170.00;;;21.41;57.63
56142;BME280;42018;48.588;10.836;2023-07-09T00:47:48;97176.50;;;21.40;56.87
56142;BME280;42018;48.588;10.836;2023-07-09T00:50:55;97175.25;;;21.38;57.09
56142;BME280;42018;48.588;10.836;2023-07-09T00:53:43;97181.06;;;21.48;57.60
56142;BME280;42018;48.588;10.836;2023-07-09T00:56:38;97185.88;;;21.34;57.43
56142;BME280;42018;48.588;10.836;2023-07-09T00:59:27;97191.59;;;21.33;57.64
56142;BME280;42018;48.588;10.836;2023-07-09T01:02:17;97189.88;;;21.28;58.19
56142;BME280;42018;48.588;10.836;2023-07-09T01:05:08;97200.16;;;21.26;58.58
56142;BME280;42018;48.588;10.836;2023-07-09T01:07:56;97192.78;;;21.14;58.37
56142;BME280;42018;48.588;10.836;2023-07-09T01:10:43;97193.59;;;21.06;58.72
56142;BME280;42018;48.588;10.836;2023-07-09T01:13:29;97194.28;;;20.86;59.29
56142;BME280;42018;48.588;10.836;2023-07-09T01:16:18;97200.31;;;20.83;59.58
56142;BME280;42018;48.588;10.836;2023-07-09T01:19:05;97194.78;;;20.79;59.32
56142;BME280;42018;48.588;10.836;2023-07-09T01:22:11;97192.59;;;20.64;59.88
56142;BME280;42018;48.588;10.836;2023-07-09T01:27:47;97198.88;;;20.76;59.37
56142;BME280;42018;48.588;10.836;2023-07-09T01:30:36;97198.56;;;20.87;59.00
56142;BME280;42018;48.588;10.836;2023-07-09T01:33:23;97206.97;;;20.85;58.65
56142;BME280;42018;48.588;10.836;2023-07-09T01:36:09;97199.97;;;20.84;58.79
56142;BME280;42018;48.588;10.836;2023-07-09T01:38:56;97197.63;;;20.83;58.94
56142;BME280;42018;48.588;10.836;2023-07-09T01:41:41;97202.84;;;20.70;59.27
56142;BME280;42018;48.588;10.836;2023-07-09T01:44:27;97209.38;;;20.61;59.41
56142;BME280;42018;48.588;10.836;2023-07-09T01:47:14;97202.25;;;20.65;58.95
56142;BME280;42018;48.588;10.836;2023-07-09T01:50:00;97197.78;;;20.69;58.80
56142;BME280;42018;48.588;10.836;2023-07-09T01:52:46;97200.19;;;20.62;58.46
56142;BME280;42018;48.588;10.836;2023-07-09T01:55:34;97208.59;;;20.60;59.11
56142;BME280;42018;48.588;10.836;2023-07-09T01:58:19;97199.84;;;20.37;60.02
56142;BME280;42018;48.588;10.836;2023-07-09T02:01:10;97211.72;;;20.10;61.46
56142;BME280;42018;48.588;10.836;2023-07-09T02:03:55;97205.53;;;20.27;60.62
56142;BME280;42018;48.588;10.836;2023-07-09T02:06:40;97202.41;;;20.25;60.69
56142;BME280;42018;48.588;10.836;2023-07-09T02:09:26;97200.78;;;20.24;61.01
56142;BME280;42018;48.588;10.836;2023-07-09T02:12:12;97204.75;;;20.26;61.11
56142;BME280;42018;48.588;10.836;2023-07-09T02:14:58;97207.28;;;20.23;60.97
56142;BME280;42018;48.588;10.836;2023-07-09T02:17:43;97201.69;;;19.84;62.50
56142;BME280;42018;48.588;10.836;2023-07-09T02:20:29;97206.28;;;19.84;62.43
56142;BME280;42018;48.588;10.836;2023-07-09T02:23:14;97209.94;;;19.88;62.19
56142;BME280;42018;48.588;10.836;2023-07-09T02:25:59;97209.94;;;19.88;62.25
56142;BME280;42018;48.588;10.836;2023-07-09T02:28:45;97208.34;;;19.87;61.96
56142;BME280;42018;48.588;10.836;2023-07-09T02:31:30;97211.50;;;19.80;62.28
56142;BME280;42018;48.588;10.836;2023-07-09T02:34:16;97212.16;;;19.86;61.66
56142;BME280;42018;48.588;10.836;2023-07-09T02:37:01;97210.09;;;19.92;61.66
56142;BME280;42018;48.588;10.836;2023-07-09T02:39:47;97209.63;;;19.98;61.32
56142;BME280;42018;48.588;10.836;2023-07-09T02:42:32;97213.25;;;19.85;61.58
56142;BME280;42018;48.588;10.836;2023-07-09T02:45:18;97215.22;;;19.53;62.32
56142;BME280;42018;48.588;10.836;2023-07-09T02:48:03;97214.56;;;19.56;62.13
56142;BME280;42018;48.588;10.836;2023-07-09T02:50:48;97207.09;;;19.45;62.50
56142;BME280;42018;48.588;10.836;2023-07-09T02:53:34;97217.03;;;19.35;62.75
56142;BME280;42018;48.588;10.836;2023-07-09T02:56:19;97221.03;;;19.47;62.34
56142;BME280;42018;48.588;10.836;2023-07-09T02:59:04;97212.75;;;19.34;62.77
56142;BME280;42018;48.588;10.836;2023-07-09T03:01:50;97219.25;;;19.33;63.26
56142;BME280;42018;48.588;10.836;2023-07-09T03:04:35;97220.44;;;19.19;63.89
56142;BME280;42018;48.588;10.836;2023-07-09T03:07:20;97220.81;;;19.34;62.96
56142;BME280;42018;48.588;10.836;2023-07-09T03:10:06;97229.53;;;19.40;62.53
56142;BME280;42018;48.588;10.836;2023-07-09T03:12:52;97224.50;;;19.47;62.24
56142;BME280;42018;48.588;10.836;2023-07-09T03:15:37;97225.28;;;19.39;62.79
56142;BME280;42018;48.588;10.836;2023-07-09T03:18:22;97224.00;;;19.36;62.44
56142;BME280;42018;48.588;10.836;2023-07-09T03:21:08;97227.28;;;19.25;63.08
56142;BME280;42018;48.588;10.836;2023-07-09T03:23:54;97222.69;;;19.25;63.23
56142;BME280;42018;48.588;10.836;2023-07-09T03:26:39;97228.13;;;19.43;62.04
56142;BME280;42018;48.588;10.836;2023-07-09T03:29:25;97235.09;;;19.52;61.94
56142;BME280;42018;48.588;10.836;2023-07-09T03:32:10;97240.50;;;19.52;61.63
56142;BME280;42018;48.588;10.836;2023-07-09T03:34:55;97244.78;;;19.53;61.89
56142;BME280;42018;48.588;10.836;2023-07-09T03:37:41;97250.19;;;19.62;61.56
56142;BME280;42018;48.588;10.836;2023-07-09T03:40:26;97253.69;;;19.63;61.66
56142;BME280;42018;48.588;10.836;2023-07-09T03:43:11;97263.03;;;19.65;61.88
56142;BME280;42018;48.588;10.836;2023-07-09T03:45:57;97261.63;;;19.68;61.95
56142;BME280;42018;48.588;10.836;2023-07-09T03:48:42;97262.53;;;19.63;62.25
56142;BME280;42018;48.588;10.836;2023-07-09T03:51:27;97265.88;;;19.69;61.53
56142;BME280;42018;48.588;10.836;2023-07-09T03:54:13;97268.94;;;19.84;61.05
56142;BME280;42018;48.588;10.836;2023-07-09T03:56:58;97270.41;;;19.99;60.48
56142;BME280;42018;48.588;10.836;2023-07-09T03:59:44;97274.06;;;20.03;60.52
56142;BME280;42018;48.588;10.836;2023-07-09T04:02:30;97273.84;;;19.91;61.17
56142;BME280;42018;48.588;10.836;2023-07-09T04:05:16;97272.00;;;19.60;62.35
56142;BME280;42018;48.588;10.836;2023-07-09T04:08:03;97268.28;;;19.39;62.93
56142;BME280;42018;48.588;10.836;2023-07-09T04:10:48;97262.81;;;19.22;63.70
56142;BME280;42018;48.588;10.836;2023-07-09T04:13:34;97274.09;;;19.10;64.10
56142;BME280;42018;48.588;10.836;2023-07-09T04:16:19;97273.66;;;19.17;64.54
56142;BME280;42018;48.588;10.836;2023-07-09T04:19:05;97265.44;;;19.44;63.39
56142;BME280;42018;48.588;10.836;2023-07-09T04:21:50;97268.28;;;19.39;63.97
56142;BME280;42018;48.588;10.836;2023-07-09T04:24:35;97273.22;;;19.54;63.02
56142;BME280;42018;48.588;10.836;2023-07-09T04:27:21;97274.59;;;19.74;62.49
56142;BME280;42018;48.588;10.836;2023-07-09T04:30:12;97273.47;;;19.67;63.07
56142;BME280;42018;48.588;10.836;2023-07-09T04:32:59;97274.84;;;20.04;62.13
56142;BME280;42018;48.588;10.836;2023-07-09T04:35:45;97278.81;;;20.24;61.16
56142;BME280;42018;48.588;10.836;2023-07-09T04:38:31;97277.13;;;20.63;58.71
56142;BME280;42018;48.588;10.836;2023-07-09T04:41:16;97273.00;;;20.74;58.07
56142;BME280;42018;48.588;10.836;2023-07-09T04:44:01;97275.41;;;20.75;58.25
56142;BME280;42018;48.588;10.836;2023-07-09T04:46:47;97270.00;;;20.84;58.34
56142;BME280;42018;48.588;10.836;2023-07-09T04:49:34;97277.31;;;20.92;58.36
56142;BME280;42018;48.588;10.836;2023-07-09T04:52:20;97273.63;;;20.97;58.26
56142;BME280;42018;48.588;10.836;2023-07-09T04:55:07;97276.00;;;21.07;58.16
56142;BME280;42018;48.588;10.836;2023-07-09T04:57:53;97271.88;;;21.01;58.61
56142;BME280;42018;48.588;10.836;2023-07-09T05:00:39;97270.16;;;20.96;59.52
56142;BME280;42018;48.588;10.836;2023-07-09T05:03:24;97259.09;;;20.54;62.74
56142;BME280;42018;48.588;10.836;2023-07-09T05:06:10;97274.09;;;20.29;63.55
56142;BME280;42018;48.588;10.836;2023-07-09T05:08:55;97275.03;;;20.25;62.88
56142;BME280;42018;48.588;10.836;2023-07-09T05:11:40;97279.31;;;20.17;63.67
56142;BME280;42018;48.588;10.836;2023-07-09T05:14:27;97284.38;;;20.10;65.36
56142;BME280;42018;48.588;10.836;2023-07-09T05:17:12;97283.28;;;20.28;63.66
56142;BME280;42018;48.588;10.836;2023-07-09T05:19:58;97278.38;;;20.22;63.89
56142;BME280;42018;48.588;10.836;2023-07-09T05:22:43;97282.91;;;20.04;64.89
56142;BME280;42018;48.588;10.836;2023-07-09T05:25:29;97283.91;;;20.25;63.72
56142;BME280;42018;48.588;10.836;2023-07-09T05:28:15;97284.91;;;20.55;62.30
56142;BME280;42018;48.588;10.836;2023-07-09T05:31:00;97290.56;;;20.45;62.79
56142;BME280;42018;48.588;10.836;2023-07-09T05:33:45;97299.47;;;20.54;61.90
56142;BME280;42018;48.588;10.836;2023-07-09T05:36:31;97288.81;;;20.32;62.82
56142;BME280;42018;48.588;10.836;2023-07-09T05:39:16;97289.78;;;20.36;62.38
56142;BME280;42018;48.588;10.836;2023-07-09T05:42:02;97295.34;;;20.66;61.77
56142;BME280;42018;48.588;10.836;2023-07-09T05:44:47;97298.22;;;20.61;63.58
56142;BME280;42018;48.588;10.836;2023-07-09T05:47:33;97296.63;;;20.60;63.50
56142;BME280;42018;48.588;10.836;2023-07-09T05:50:18;97294.91;;;20.64;62.20
56142;BME280;42018;48.588;10.836;2023-07-09T05:53:03;97291.53;;;20.84;61.91
56142;BME280;42018;48.588;10.836;2023-07-09T05:55:53;97299.63;;;20.93;61.89
56142;BME280;42018;48.588;10.836;2023-07-09T05:58:38;97301.03;;;21.08;61.61
56142;BME280;42018;48.588;10.836;2023-07-09T06:01:24;97292.47;;;21.14;60.76
56142;BME280;42018;48.588;10.836;2023-07-09T06:04:10;97292.00;;;21.21;60.83
56142;BME280;42018;48.588;10.836;2023-07-09T06:06:59;97298.00;;;21.35;60.50
56142;BME280;42018;48.588;10.836;2023-07-09T06:09:44;97295.59;;;21.42;59.65
56142;BME280;42018;48.588;10.836;2023-07-09T06:12:31;97293.69;;;21.43;60.96
56142;BME280;42018;48.588;10.836;2023-07-09T06:15:16;97301.78;;;21.34;61.05
56142;BME280;42018;48.588;10.836;2023-07-09T06:18:02;97298.94;;;21.39;61.02
56142;BME280;42018;48.588;10.836;2023-07-09T06:20:51;97300.16;;;21.50;61.27
56142;BME280;42018;48.588;10.836;2023-07-09T06:23:37;97300.38;;;21.45;61.69
56142;BME280;42018;48.588;10.836;2023-07-09T06:26:23;97295.84;;;21.58;61.40
56142;BME280;42018;48.588;10.836;2023-07-09T06:29:08;97296.00;;;21.62;61.63
56142;BME280;42018;48.588;10.836;2023-07-09T06:31:54;97296.44;;;21.72;60.60
56142;BME280;42018;48.588;10.836;2023-07-09T06:34:39;97293.44;;;21.74;61.46
56142;BME280;42018;48.588;10.836;2023-07-09T06:37:24;97291.19;;;21.76;60.78
56142;BME280;42018;48.588;10.836;2023-07-09T06:40:10;97283.66;;;21.90;60.95
56142;BME280;42018;48.588;10.836;2023-07-09T06:42:55;97284.41;;;21.99;60.40
56142;BME280;42018;48.588;10.836;2023-07-09T06:45:56;97289.03;;;22.29;59.36
56142;BME280;42018;48.588;10.836;2023-07-09T06:48:42;97287.59;;;22.31;59.70
56142;BME280;42018;48.588;10.836;2023-07-09T06:51:28;97298.59;;;22.47;59.27
56142;BME280;42018;48.588;10.836;2023-07-09T06:54:13;97296.63;;;22.56;59.06
56142;BME280;42018;48.588;10.836;2023-07-09T06:57:00;97291.53;;;22.76;58.44
56142;BME280;42018;48.588;10.836;2023-07-09T06:59:45;97291.66;;;23.00;58.00
56142;BME280;42018;48.588;10.836;2023-07-09T07:02:31;97297.13;;;23.12;57.67
56142;BME280;42018;48.588;10.836;2023-07-09T07:05:17;97295.22;;;23.13;57.49
56142;BME280;42018;48.588;10.836;2023-07-09T07:08:03;97298.53;;;23.31;57.36
56142;BME280;42018;48.588;10.836;2023-07-09T07:10:49;97290.19;;;23.24;58.47
56142;BME280;42018;48.588;10.836;2023-07-09T07:13:37;97295.84;;;23.43;57.55
56142;BME280;42018;48.588;10.836;2023-07-09T07:16:22;97296.00;;;23.59;57.38
56142;BME280;42018;48.588;10.836;2023-07-09T07:19:08;97294.19;;;23.63;57.24
56142;BME280;42018;48.588;10.836;2023-07-09T07:21:54;97297.63;;;23.84;56.16
56142;BME280;42018;48.588;10.836;2023-07-09T07:24:41;97288.22;;;23.94;55.95
56142;BME280;42018;48.588;10.836;2023-07-09T07:27:26;97291.75;;;24.07;55.55
56142;BME280;42018;48.588;10.836;2023-07-09T07:30:11;97291.06;;;24.10;55.65
56142;BME280;42018;48.588;10.836;2023-07-09T07:32:57;97291.38;;;24.21;55.26
56142;BME280;42018;48.588;10.836;2023-07-09T07:35:42;97287.53;;;24.46;55.09
56142;BME280;42018;48.588;10.836;2023-07-09T07:38:27;97285.06;;;24.81;53.81
56142;BME280;42018;48.588;10.836;2023-07-09T07:41:13;97287.47;;;24.99;53.37
56142;BME280;42018;48.588;10.836;2023-07-09T07:43:58;97291.25;;;25.10;52.66
56142;BME280;42018;48.588;10.836;2023-07-09T07:46:44;97287.13;;;25.28;51.36
56142;BME280;42018;48.588;10.836;2023-07-09T07:49:30;97284.25;;;25.53;51.70
56142;BME280;42018;48.588;10.836;2023-07-09T07:52:16;97275.16;;;25.77;51.21
56142;BME280;42018;48.588;10.836;2023-07-09T07:55:01;97272.66;;;25.84;51.47
56142;BME280;42018;48.588;10.836;2023-07-09T07:57:47;97279.34;;;25.74;49.70
56142;BME280;42018;48.588;10.836;2023-07-09T08:00:33;97279.44;;;26.10;50.32
56142;BME280;42018;48.588;10.836;2023-07-09T08:03:18;97272.94;;;26.14;48.71
56142;BME280;42018;48.588;10.836;2023-07-09T08:06:03;97277.28;;;26.35;48.85
56142;BME280;42018;48.588;10.836;2023-07-09T08:08:49;97269.88;;;26.70;48.47
56142;BME280;42018;48.588;10.836;2023-07-09T08:11:34;97268.44;;;26.96;47.90
56142;BME280;42018;48.588;10.836;2023-07-09T08:14:20;97263.66;;;26.89;47.59
56142;BME280;42018;48.588;10.836;2023-07-09T08:17:06;97269.97;;;26.93;47.07
56142;BME280;42018;48.588;10.836;2023-07-09T08:19:53;97270.75;;;27.13;47.07
56142;BME280;42018;48.588;10.836;2023-07-09T08:22:39;97272.72;;;27.36;46.21
56142;BME280;42018;48.588;10.836;2023-07-09T08:25:24;97264.81;;;27.50;44.27
56142;BME280;42018;48.588;10.836;2023-07-09T08:28:10;97267.00;;;27.67;44.81
56142;BME280;42018;48.588;10.836;2023-07-09T08:30:56;97263.22;;;27.72;44.80
56142;BME280;42018;48.588;10.836;2023-07-09T08:33:41;97261.63;;;27.94;45.01
56142;BME280;42018;48.588;10.836;2023-07-09T08:36:26;97258.56;;;27.99;44.60
56142;BME280;42018;48.588;10.836;2023-07-09T08:39:12;97252.59;;;28.16;43.83
56142;BME280;42018;48.588;10.836;2023-07-09T08:42:03;97253.75;;;28.15;42.82
56142;BME280;42018;48.588;10.836;2023-07-09T08:48:19;97262.97;;;28.34;42.78
56142;BME280;42018;48.588;10.836;2023-07-09T08:54:01;97257.59;;;29.01;39.45
56142;BME280;42018;48.588;10.836;2023-07-09T08:56:47;97251.25;;;29.31;40.29
56142;BME280;42018;48.588;10.836;2023-07-09T08:59:32;97251.03;;;29.47;38.39
56142;BME280;42018;48.588;10.836;2023-07-09T09:03:00;97259.28;;;29.54;37.88
56142;BME280;42018;48.588;10.836;2023-07-09T09:05:48;97254.81;;;29.79;38.24
56142;BME280;42018;48.588;10.836;2023-07-09T09:08:42;97254.59;;;30.06;38.69
56142;BME280;42018;48.588;10.836;2023-07-09T09:14:39;97260.13;;;30.13;38.04
56142;BME280;42018;48.588;10.836;2023-07-09T09:17:27;97255.69;;;30.53;37.00
56142;BME280;42018;48.588;10.836;2023-07-09T09:20:20;97260.06;;;30.72;34.83
56142;BME280;42018;48.588;10.836;2023-07-09T09:23:15;97258.19;;;30.90;34.88
56142;BME280;42018;48.588;10.836;2023-07-09T09:26:02;97253.16;;;31.03;33.82
56142;BME280;42018;48.588;10.836;2023-07-09T09:28:51;97256.28;;;31.09;33.75
56142;BME280;42018;48.588;10.836;2023-07-09T09:31:37;97254.38;;;31.34;33.80
56142;BME280;42018;48.588;10.836;2023-07-09T09:34:26;97252.00;;;31.22;33.23
56142;BME280;42018;48.588;10.836;2023-07-09T09:37:12;97253.63;;;31.37;32.59
56142;BME280;42018;48.588;10.836;2023-07-09T09:39:59;97253.16;;;31.07;32.62
56142;BME280;42018;48.588;10.836;2023-07-09T09:42:44;97258.63;;;30.99;32.27
56142;BME280;42018;48.588;10.836;2023-07-09T09:45:36;97257.03;;;30.95;31.98
56142;BME280;42018;48.588;10.836;2023-07-09T09:48:29;97257.00;;;30.91;33.12
56142;BME280;42018;48.588;10.836;2023-07-09T09:51:17;97256.25;;;31.01;33.37
56142;BME280;42018;48.588;10.836;2023-07-09T09:54:14;97250.50;;;31.39;32.74
56142;BME280;42018;48.588;10.836;2023-07-09T09:57:01;97254.81;;;31.79;31.64
56142;BME280;42018;48.588;10.836;2023-07-09T09:59:47;97263.78;;;32.15;31.48
56142;BME280;42018;48.588;10.836;2023-07-09T10:02:38;97257.97;;;31.88;29.76
56142;BME280;42018;48.588;10.836;2023-07-09T10:05:41;97266.16;;;32.13;31.01
56142;BME280;42018;48.588;10.836;2023-07-09T10:08:42;97257.09;;;32.31;31.71
56142;BME280;42018;48.588;10.836;2023-07-09T10:17:38;97257.88;;;32.42;30.12
56142;BME280;42018;48.588;10.836;2023-07-09T10:30:36;97257.88;;;32.46;30.35
56142;BME280;42018;48.588;10.836;2023-07-09T10:33:31;97255.47;;;32.55;30.20
56142;BME280;42018;48.588;10.836;2023-07-09T10:39:23;97250.31;;;32.71;28.90
56142;BME280;42018;48.588;10.836;2023-07-09T10:42:17;97243.31;;;32.63;27.78
56142;BME280;42018;48.588;10.836;2023-07-09T10:45:10;97242.38;;;32.98;28.05
56142;BME280;42018;48.588;10.836;2023-07-09T10:48:04;97244.84;;;33.41;27.60
56142;BME280;42018;48.588;10.836;2023-07-09T10:50:52;97244.44;;;33.43;27.58
56142;BME280;42018;48.588;10.836;2023-07-09T10:56:31;97234.53;;;32.89;26.59
56142;BME280;42018;48.588;10.836;2023-07-09T10:59:31;97237.66;;;33.58;25.37
56142;BME280;42018;48.588;10.836;2023-07-09T11:02:33;97235.47;;;33.87;26.77
56142;BME280;42018;48.588;10.836;2023-07-09T11:05:19;97232.41;;;33.78;26.15
56142;BME280;42018;48.588;10.836;2023-07-09T11:08:09;97228.22;;;34.04;25.66
56142;BME280;42018;48.588;10.836;2023-07-09T11:10:59;97219.50;;;33.71;25.06
56142;BME280;42018;48.588;10.836;2023-07-09T11:13:50;97209.81;;;34.01;25.76
56142;BME280;42018;48.588;10.836;2023-07-09T11:16:40;97206.81;;;33.84;25.48
56142;BME280;42018;48.588;10.836;2023-07-09T11:19:27;97210.34;;;33.85;24.75
56142;BME280;42018;48.588;10.836;2023-07-09T11:22:27;97211.72;;;33.63;25.33
56142;BME280;42018;48.588;10.836;2023-07-09T11:25:31;97204.56;;;33.72;24.16
56142;BME280;42018;48.588;10.836;2023-07-09T11:28:16;97200.72;;;34.04;24.51
56142;BME280;42018;48.588;10.836;2023-07-09T11:31:41;97201.91;;;33.61;24.99
56142;BME280;42018;48.588;10.836;2023-07-09T11:34:29;97209.66;;;33.74;24.87
56142;BME280;42018;48.588;10.836;2023-07-09T11:37:15;97208.97;;;34.04;24.73
56142;BME280;42018;48.588;10.836;2023-07-09T11:40:14;97202.41;;;33.94;26.42
56142;BME280;42018;48.588;10.836;2023-07-09T11:42:59;97193.38;;;34.66;23.68
56142;BME280;42018;48.588;10.836;2023-07-09T11:45:45;97198.91;;;34.89;22.97
56142;BME280;42018;48.588;10.836;2023-07-09T11:48:32;97191.66;;;35.30;23.28
56142;BME280;42018;48.588;10.836;2023-07-09T11:51:45;97187.56;;;34.87;23.07
56142;BME280;42018;48.588;10.836;2023-07-09T11:54:37;97175.31;;;35.19;23.02
56142;BME280;42018;48.588;10.836;2023-07-09T11:57:23;97176.06;;;35.43;23.56
56142;BME280;42018;48.588;10.836;2023-07-09T12:00:09;97174.50;;;35.89;23.17
56142;BME280;42018;48.588;10.836;2023-07-09T12:02:55;97172.78;;;35.75;23.57
56142;BME280;42018;48.588;10.836;2023-07-09T12:05:42;97176.97;;;35.36;23.05
56142;BME280;42018;48.588;10.836;2023-07-09T12:08:40;97178.53;;;34.87;22.94
56142;BME280;42018;48.588;10.836;2023-07-09T12:11:31;97173.78;;;35.14;23.33
56142;BME280;42018;48.588;10.836;2023-07-09T12:14:20;97174.34;;;34.75;26.25
56142;BME280;42018;48.588;10.836;2023-07-09T12:17:08;97171.03;;;35.14;23.42
56142;BME280;42018;48.588;10.836;2023-07-09T12:19:54;97175.13;;;34.75;24.18
56142;BME280;42018;48.588;10.836;2023-07-09T12:22:40;97165.94;;;35.36;23.17
56142;BME280;42018;48.588;10.836;2023-07-09T12:25:28;97157.31;;;35.61;22.97
56142;BME280;42018;48.588;10.836;2023-07-09T12:28:15;97154.81;;;35.43;24.07
56142;BME280;42018;48.588;10.836;2023-07-09T12:31:00;97150.03;;;35.24;22.31
56142;BME280;42018;48.588;10.836;2023-07-09T12:33:51;97152.59;;;35.11;22.42
56142;BME280;42018;48.588;10.836;2023-07-09T12:36:38;97149.31;;;35.20;22.22
56142;BME280;42018;48.588;10.836;2023-07-09T12:39:28;97144.09;;;35.49;23.42
56142;BME280;42018;48.588;10.836;2023-07-09T12:42:20;97135.72;;;35.09;22.56
56142;BME280;42018;48.588;10.836;2023-07-09T12:45:21;97133.63;;;34.63;23.84
56142;BME280;42018;48.588;10.836;2023-07-09T12:48:07;97121.66;;;35.27;22.95
56142;BME280;42018;48.588;10.836;2023-07-09T12:50:57;97125.06;;;36.02;22.19
56142;BME280;42018;48.588;10.836;2023-07-09T13:01:14;97122.00;;;36.88;22.42
56142;BME280;42018;48.588;10.836;2023-07-09T13:04:03;97126.53;;;37.15;21.41
56142;BME280;42018;48.588;10.836;2023-07-09T13:10:18;97127.34;;;36.43;21.04
56142;BME280;42018;48.588;10.836;2023-07-09T13:13:13;97116.53;;;36.52;20.95
56142;BME280;42018;48.588;10.836;2023-07-09T13:16:01;97118.03;;;35.97;21.96
56142;BME280;42018;48.588;10.836;2023-07-09T13:22:29;97114.47;;;36.56;21.69
56142;BME280;42018;48.588;10.836;2023-07-09T13:25:16;97112.28;;;36.48;22.34
56142;BME280;42018;48.588;10.836;2023-07-09T13:28:01;97112.50;;;36.37;22.37
56142;BME280;42018;48.588;10.836;2023-07-09T13:30:56;97112.72;;;35.66;21.58
56142;BME280;42018;48.588;10.836;2023-07-09T13:33:44;97116.91;;;36.14;21.57
56142;BME280;42018;48.588;10.836;2023-07-09T13:36:29;97111.38;;;36.54;21.56
56142;BME280;42018;48.588;10.836;2023-07-09T13:39:20;97102.25;;;36.90;22.40
56142;BME280;42018;48.588;10.836;2023-07-09T13:42:10;97103.63;;;36.65;22.35
56142;BME280;42018;48.588;10.836;2023-07-09T13:44:57;97106.38;;;36.65;20.78
56142;BME280;42018;48.588;10.836;2023-07-09T13:47:43;97108.44;;;36.61;21.11
56142;BME280;42018;48.588;10.836;2023-07-09T13:50:28;97105.31;;;36.23;20.36
56142;BME280;42018;48.588;10.836;2023-07-09T13:53:31;97108.13;;;35.80;21.80
56142;BME280;42018;48.588;10.836;2023-07-09T13:56:17;97111.34;;;35.74;21.42
56142;BME280;42018;48.588;10.836;2023-07-09T13:59:02;97101.03;;;35.79;21.99
56142;BME280;42018;48.588;10.836;2023-07-09T14:01:49;97101.84;;;36.19;22.19
56142;BME280;42018;48.588;10.836;2023-07-09T14:04:35;97100.50;;;36.07;21.50
56142;BME280;42018;48.588;10.836;2023-07-09T14:07:34;97101.44;;;36.57;20.94
56142;BME280;42018;48.588;10.836;2023-07-09T14:10:20;97093.19;;;36.73;20.01
56142;BME280;42018;48.588;10.836;2023-07-09T14:13:12;97096.03;;;36.70;20.65
56142;BME280;42018;48.588;10.836;2023-07-09T14:15:59;97089.41;;;36.47;19.98
56142;BME280;42018;48.588;10.836;2023-07-09T14:18:44;97087.31;;;36.87;19.56
56142;BME280;42018;48.588;10.836;2023-07-09T14:21:30;97080.34;;;37.15;20.39
56142;BME280;42018;48.588;10.836;2023-07-09T14:24:24;97085.63;;;36.57;20.41
56142;BME280;42018;48.588;10.836;2023-07-09T14:27:10;97081.69;;;36.58;20.21
56142;BME280;42018;48.588;10.836;2023-07-09T14:29:55;97083.84;;;36.51;20.35
56142;BME280;42018;48.588;10.836;2023-07-09T14:32:41;97085.41;;;36.32;20.69
56142;BME280;42018;48.588;10.836;2023-07-09T14:35:27;97074.28;;;36.35;20.07
56142;BME280;42018;48.588;10.836;2023-07-09T14:41:16;97070.44;;;36.13;20.98
56142;BME280;42018;48.588;10.836;2023-07-09T14:44:15;97062.91;;;36.33;20.45
56142;BME280;42018;48.588;10.836;2023-07-09T14:47:15;97069.53;;;36.56;20.80
56142;BME280;42018;48.588;10.836;2023-07-09T14:50:01;97065.59;;;36.37;21.08
56142;BME280;42018;48.588;10.836;2023-07-09T14:52:47;97065.06;;;36.26;20.29
56142;BME280;42018;48.588;10.836;2023-07-09T14:55:33;97059.28;;;35.80;21.04
56142;BME280;42018;48.588;10.836;2023-07-09T14:58:21;97054.03;;;35.86;22.84
56142;BME280;42018;48.588;10.836;2023-07-09T15:01:14;97049.53;;;35.76;22.32
56142;BME280;42018;48.588;10.836;2023-07-09T15:04:18;97044.06;;;35.92;22.32
56142;BME280;42018;48.588;10.836;2023-07-09T15:07:07;97043.72;;;35.90;22.29
56142;BME280;42018;48.588;10.836;2023-07-09T15:09:53;97047.19;;;35.94;22.25
56142;BME280;42018;48.588;10.836;2023-07-09T15:12:38;97045.84;;;35.62;23.13
56142;BME280;42018;48.588;10.836;2023-07-09T15:15:29;97044.06;;;35.29;23.10
56142;BME280;42018;48.588;10.836;2023-07-09T15:18:15;97042.47;;;35.08;23.30
56142;BME280;42018;48.588;10.836;2023-07-09T15:21:03;97042.41;;;35.11;23.84
56142;BME280;42018;48.588;10.836;2023-07-09T15:23:49;97040.94;;;35.07;23.53
56142;BME280;42018;48.588;10.836;2023-07-09T15:26:34;97035.84;;;35.05;24.97
56142;BME280;42018;48.588;10.836;2023-07-09T15:29:20;97041.13;;;34.92;25.07
56142;BME280;42018;48.588;10.836;2023-07-09T15:32:06;97032.38;;;34.47;24.48